createdAt,value
2023-07-10T00:02:06.461Z,1.52
2023-07-10T00:05:15.620Z,1.60
2023-07-10T00:08:21.510Z,1.38
2023-07-10T00:11:29.156Z,1.50
2023-07-10T00:14:35.291Z,1.85
2023-07-10T00:17:39.764Z,1.70
2023-07-10T00:20:46.329Z,1.33
2023-07-10T00:23:52.404Z,1.55
2023-07-10T00:26:56.951Z,1.45
2023-07-10T00:30:01.476Z,1.60
2023-07-10T00:33:09.627Z,1.80
2023-07-10T00:36:28.393Z,1.80
2023-07-10T00:39:38.057Z,1.67
2023-07-10T00:42:42.524Z,1.70
2023-07-10T00:45:47.012Z,1.60
2023-07-10T00:48:55.219Z,1.67
2023-07-10T00:52:04.500Z,1.90
2023-07-10T00:55:18.335Z,1.52
2023-07-10T00:58:30.467Z,1.60
2023-07-10T01:01:35.723Z,2.00
2023-07-10T01:04:42.034Z,1.70
2023-07-10T01:07:49.474Z,1.40
2023-07-10T01:10:55.416Z,1.63
2023-07-10T01:14:01.003Z,1.85
2023-07-10T01:17:07.190Z,1.50
2023-07-10T01:20:37.639Z,1.80
2023-07-10T01:23:43.530Z,1.77
2023-07-10T01:26:48.454Z,1.30
2023-07-10T01:30:02.189Z,1.60
2023-07-10T01:33:08.337Z,1.70
2023-07-10T01:36:15.049Z,1.67
2023-07-10T01:39:38.517Z,1.60
2023-07-10T01:42:43.093Z,1.50
2023-07-10T01:45:50.004Z,1.80
2023-07-10T01:48:57.433Z,1.58
2023-07-10T01:52:04.373Z,1.52
2023-07-10T01:55:12.005Z,1.80
2023-07-10T01:58:16.717Z,2.00
2023-07-10T02:01:21.570Z,1.40
2023-07-10T02:04:26.982Z,1.75
2023-07-10T02:07:31.577Z,2.13
2023-07-10T02:10:44.566Z,2.00
2023-07-10T02:13:50.522Z,1.67
2023-07-10T02:16:55.422Z,1.60
2023-07-10T02:20:00.093Z,1.77
2023-07-10T02:23:04.644Z,1.50
2023-07-10T02:26:11.011Z,1.65
2023-07-10T02:29:15.693Z,2.38
2023-07-10T02:32:20.872Z,2.10
2023-07-10T02:35:25.430Z,2.05
2023-07-10T02:38:29.951Z,1.77
2023-07-10T02:41:35.932Z,1.92
2023-07-10T02:44:40.510Z,1.90
2023-07-10T02:47:45.023Z,1.73
2023-07-10T02:50:49.595Z,1.90
2023-07-10T02:53:54.578Z,2.20
2023-07-10T02:57:00.524Z,2.10
2023-07-10T03:00:06.043Z,1.80
2023-07-10T03:03:10.630Z,2.05
2023-07-10T03:06:15.794Z,1.80
2023-07-10T03:09:21.339Z,1.80
2023-07-10T03:12:27.790Z,1.90
2023-07-10T03:15:32.342Z,1.73
2023-07-10T03:18:36.828Z,1.60
2023-07-10T03:21:41.382Z,1.60
2023-07-10T03:24:46.113Z,2.00
2023-07-10T03:27:53.812Z,1.63
2023-07-10T03:30:58.453Z,1.50
2023-07-10T03:34:03.072Z,1.42
2023-07-10T03:37:08.328Z,1.50
2023-07-10T03:40:13.597Z,1.55
2023-07-10T03:43:19.483Z,1.75
2023-07-10T03:46:24.370Z,1.80
2023-07-10T03:49:29.009Z,1.60
2023-07-10T03:52:33.476Z,1.75
2023-07-10T03:55:37.997Z,1.88
2023-07-10T03:58:45.096Z,1.75
2023-07-10T04:01:49.646Z,1.65
2023-07-10T04:04:54.129Z,1.70
2023-07-10T04:07:58.573Z,1.50
2023-07-10T04:11:04.670Z,1.60
2023-07-10T04:14:11.441Z,1.35
2023-07-10T04:17:16.445Z,1.23
2023-07-10T04:20:21.273Z,1.67
2023-07-10T04:23:25.821Z,1.25
2023-07-10T04:26:32.588Z,1.60
2023-07-10T04:29:38.621Z,1.33
2023-07-10T04:32:43.186Z,1.50
2023-07-10T04:35:55.145Z,1.60
2023-07-10T04:38:59.946Z,1.50
2023-07-10T04:42:04.551Z,2.03
2023-07-10T04:45:11.500Z,1.65
2023-07-10T04:48:16.142Z,1.55
2023-07-10T04:51:21.837Z,1.35
2023-07-10T04:54:26.315Z,1.50
2023-07-10T04:57:30.813Z,1.40
2023-07-10T05:00:37.222Z,1.40
2023-07-10T05:03:41.745Z,1.52
2023-07-10T05:06:46.198Z,1.55
2023-07-10T05:09:50.910Z,1.60
2023-07-10T05:12:55.567Z,1.42
2023-07-10T05:16:02.845Z,1.55
2023-07-10T05:19:07.639Z,1.35
2023-07-10T05:22:12.123Z,1.40
2023-07-10T05:25:16.885Z,1.75
2023-07-10T05:28:21.378Z,1.85
2023-07-10T05:31:27.350Z,1.60
2023-07-10T05:34:31.909Z,1.30
2023-07-10T05:37:36.541Z,1.70
2023-07-10T05:40:43.934Z,1.35
2023-07-10T05:43:48.794Z,1.45
2023-07-10T05:46:57.326Z,1.63
2023-07-10T05:50:01.936Z,1.60
2023-07-10T05:53:06.462Z,1.52
2023-07-10T05:56:12.051Z,1.42
2023-07-10T05:59:17.547Z,1.40
2023-07-10T06:02:23.522Z,1.33
2023-07-10T06:05:27.996Z,1.60
2023-07-10T06:08:33.191Z,1.50
2023-07-10T06:11:38.212Z,1.30
2023-07-10T06:14:42.779Z,1.40
2023-07-10T06:17:48.998Z,1.50
2023-07-10T06:20:54.312Z,1.50
2023-07-10T06:23:58.830Z,1.77
2023-07-10T06:27:03.945Z,1.65
2023-07-10T06:30:10.208Z,1.48
2023-07-10T06:33:16.109Z,1.60
2023-07-10T06:36:20.663Z,1.58
2023-07-10T06:39:25.274Z,1.40
2023-07-10T06:42:29.729Z,1.63
2023-07-10T06:45:34.358Z,1.42
2023-07-10T06:48:40.759Z,1.50
2023-07-10T06:51:45.328Z,1.38
2023-07-10T06:54:50.057Z,1.80
2023-07-10T06:57:54.697Z,1.70
2023-07-10T07:01:00.468Z,1.83
2023-07-10T07:04:06.691Z,1.60
2023-07-10T07:07:11.646Z,1.42
2023-07-10T07:10:16.303Z,2.08
2023-07-10T07:13:22.638Z,1.80
2023-07-10T07:16:27.557Z,1.50
2023-07-10T07:19:33.585Z,1.58
2023-07-10T07:22:38.093Z,1.73
2023-07-10T07:25:43.698Z,1.40
2023-07-10T07:28:48.266Z,2.08
2023-07-10T07:31:52.778Z,1.70
2023-07-10T07:34:58.668Z,1.95
2023-07-10T07:38:03.216Z,1.45
2023-07-10T07:41:08.530Z,1.48
2023-07-10T07:44:13.012Z,1.80
2023-07-10T07:47:19.284Z,1.67
2023-07-10T07:50:25.278Z,1.80
2023-07-10T07:53:29.952Z,1.70
2023-07-10T07:56:34.585Z,2.17
2023-07-10T07:59:39.038Z,2.00
2023-07-10T08:02:43.615Z,2.00
2023-07-10T08:05:49.685Z,1.50
2023-07-10T08:08:54.211Z,1.70
2023-07-10T08:11:58.738Z,1.60
2023-07-10T08:15:04.402Z,1.65
2023-07-10T08:18:09.058Z,1.60
2023-07-10T08:21:18.756Z,2.28
2023-07-10T08:24:23.230Z,1.90
2023-07-10T08:27:28.182Z,2.15
2023-07-10T08:30:33.560Z,2.03
2023-07-10T08:33:38.102Z,1.77
2023-07-10T08:36:43.990Z,1.67
2023-07-10T08:39:48.886Z,1.67
2023-07-10T08:42:53.487Z,1.67
2023-07-10T08:46:05.890Z,2.40
2023-07-10T08:49:16.472Z,1.77
2023-07-10T08:52:31.026Z,1.70
2023-07-10T08:55:44.540Z,1.73
2023-07-10T08:58:49.076Z,1.73
2023-07-10T09:01:54.083Z,1.70
2023-07-10T09:04:59.079Z,1.60
2023-07-10T09:08:06.596Z,1.60
2023-07-10T09:11:13.915Z,1.90
2023-07-10T09:14:25.359Z,1.60
2023-07-10T09:17:38.914Z,1.55
2023-07-10T09:20:44.162Z,1.50
2023-07-10T09:23:51.233Z,1.65
2023-07-10T09:26:56.476Z,1.70
2023-07-10T09:30:01.603Z,1.73
2023-07-10T09:33:09.655Z,1.73
2023-07-10T09:36:16.363Z,1.70
2023-07-10T09:39:22.434Z,1.70
2023-07-10T09:42:34.093Z,1.90
2023-07-10T09:45:41.350Z,1.50
2023-07-10T09:48:48.406Z,1.80
2023-07-10T09:51:58.966Z,1.70
2023-07-10T09:55:13.396Z,1.60
2023-07-10T09:58:17.928Z,1.88
2023-07-10T10:01:25.118Z,1.45
2023-07-10T10:04:31.147Z,1.38
2023-07-10T10:07:39.444Z,1.58
2023-07-10T10:10:45.368Z,1.80
2023-07-10T10:13:57.681Z,1.67
2023-07-10T10:17:06.265Z,1.77
2023-07-10T10:20:17.835Z,1.33
2023-07-10T10:23:33.818Z,1.70
2023-07-10T10:26:59.468Z,1.75
2023-07-10T10:30:25.514Z,1.90
2023-07-10T10:33:33.058Z,1.80
2023-07-10T10:36:44.465Z,1.88
2023-07-10T10:39:55.730Z,1.73
2023-07-10T10:43:14.600Z,1.70
2023-07-10T10:46:29.240Z,1.80
2023-07-10T10:49:48.575Z,1.92
2023-07-10T10:53:01.316Z,1.83
2023-07-10T10:56:16.359Z,2.20
2023-07-10T10:59:32.046Z,1.48
2023-07-10T11:02:45.700Z,1.75
2023-07-10T11:05:53.986Z,1.63
2023-07-10T11:09:00.877Z,1.35
2023-07-10T11:12:07.058Z,1.80
2023-07-10T11:15:19.703Z,1.40
2023-07-10T11:18:24.336Z,1.60
2023-07-10T11:21:28.934Z,1.60
2023-07-10T11:24:36.543Z,1.60
2023-07-10T11:27:45.535Z,1.50
2023-07-10T11:31:14.196Z,1.60
2023-07-10T11:34:41.939Z,1.45
2023-07-10T11:38:18.035Z,1.60
2023-07-10T11:41:28.913Z,1.70
2023-07-10T11:44:42.020Z,1.52
2023-07-10T11:47:48.229Z,1.40
2023-07-10T11:50:52.717Z,1.50
2023-07-10T11:54:45.923Z,1.70
2023-07-10T11:58:31.484Z,1.42
2023-07-10T12:01:37.690Z,1.50
2023-07-10T12:04:44.409Z,1.75
2023-07-10T12:08:03.971Z,1.40
2023-07-10T12:11:31.393Z,1.70
2023-07-10T12:14:36.577Z,1.45
2023-07-10T12:17:43.356Z,1.88
2023-07-10T12:20:51.231Z,1.45
2023-07-10T12:23:56.087Z,1.55
2023-07-10T12:27:31.759Z,1.55
2023-07-10T12:30:28.812Z,1.63
2023-07-10T12:33:40.337Z,1.77
2023-07-10T12:36:45.030Z,1.58
2023-07-10T12:39:52.327Z,1.50
2023-07-10T12:42:57.461Z,1.38
2023-07-10T12:46:03.410Z,1.60
2023-07-10T12:49:15.018Z,1.83
2023-07-10T12:52:19.658Z,1.85
2023-07-10T12:55:25.649Z,1.80
2023-07-10T12:58:31.346Z,1.70
2023-07-10T13:01:36.165Z,1.50
2023-07-10T13:04:47.593Z,1.63
2023-07-10T13:07:54.632Z,1.80
2023-07-10T13:11:00.093Z,1.73
2023-07-10T13:14:14.767Z,1.83
2023-07-10T13:17:23.469Z,1.80
2023-07-10T13:20:31.116Z,4.38
2023-07-10T13:23:35.656Z,2.10
2023-07-10T13:26:40.230Z,1.80
2023-07-10T13:29:44.825Z,1.75
2023-07-10T13:32:49.872Z,2.08
2023-07-10T13:35:57.969Z,1.55
2023-07-10T13:39:02.655Z,1.70
2023-07-10T13:42:11.423Z,1.67
2023-07-10T13:45:16.181Z,1.92
2023-07-10T13:48:20.682Z,2.00
2023-07-10T13:51:28.929Z,2.10
2023-07-10T13:54:33.553Z,1.70
2023-07-10T13:57:38.298Z,1.80
2023-07-10T14:00:42.884Z,1.80
2023-07-10T14:03:48.212Z,1.83
2023-07-10T14:06:54.198Z,1.92
2023-07-10T14:10:00.069Z,1.70
2023-07-10T14:13:04.566Z,1.83
2023-07-10T14:16:16.441Z,1.88
2023-07-10T14:19:22.435Z,1.60
2023-07-10T14:22:28.529Z,1.63
2023-07-10T14:25:32.978Z,1.88
2023-07-10T14:28:37.498Z,1.90
2023-07-10T14:31:42.192Z,1.90
2023-07-10T14:34:47.434Z,1.95
2023-07-10T14:37:53.325Z,1.98
2023-07-10T14:40:58.893Z,1.85
2023-07-10T14:44:04.267Z,1.67
2023-07-10T14:47:26.853Z,1.75
2023-07-10T14:50:31.399Z,1.50
2023-07-10T14:53:37.301Z,1.88
2023-07-10T14:56:42.309Z,2.05
2023-07-10T14:59:46.868Z,1.55
2023-07-10T15:02:53.177Z,1.80
2023-07-10T15:05:58.457Z,1.90
2023-07-10T15:09:04.611Z,2.00
2023-07-10T15:12:12.720Z,1.85
2023-07-10T15:15:17.792Z,1.80
2023-07-10T15:18:25.505Z,1.83
2023-07-10T15:21:30.063Z,1.60
2023-07-10T15:24:36.549Z,1.40
2023-07-10T15:27:41.046Z,1.70
2023-07-10T15:30:45.616Z,1.60
2023-07-10T15:33:50.159Z,1.88
2023-07-10T15:36:56.160Z,1.63
2023-07-10T15:40:02.032Z,1.40
2023-07-10T15:43:07.699Z,1.67
2023-07-10T15:46:12.331Z,1.42
2023-07-10T15:49:22.504Z,1.58
2023-07-10T15:52:30.746Z,1.42
2023-07-10T15:55:36.760Z,1.50
2023-07-10T15:58:41.948Z,1.33
2023-07-10T16:01:49.784Z,1.63
2023-07-10T16:04:54.477Z,1.50
2023-07-10T16:08:00.034Z,1.65
2023-07-10T16:11:12.456Z,1.50
2023-07-10T16:14:19.120Z,1.60
2023-07-10T16:17:23.671Z,1.55
2023-07-10T16:20:29.502Z,1.40
2023-07-10T16:23:35.910Z,1.77
2023-07-10T16:26:41.857Z,1.60
2023-07-10T16:29:46.330Z,1.60
2023-07-10T16:32:52.278Z,1.80
2023-07-10T16:35:57.425Z,1.77
2023-07-10T16:39:02.056Z,1.75
2023-07-10T16:42:14.314Z,2.42
2023-07-10T16:45:21.007Z,3.10
2023-07-10T16:48:27.376Z,1.90
2023-07-10T16:51:32.016Z,2.00
2023-07-10T16:54:37.558Z,1.50
2023-07-10T16:57:43.639Z,1.60
2023-07-10T17:00:48.838Z,1.58
2023-07-10T17:03:54.819Z,1.45
2023-07-10T17:07:02.177Z,1.88
2023-07-10T17:10:07.367Z,1.83
2023-07-10T17:13:16.219Z,1.75
2023-07-10T17:16:20.710Z,1.60
2023-07-10T17:19:25.272Z,1.80
2023-07-10T17:22:32.543Z,1.67
2023-07-10T17:25:37.092Z,1.80
2023-07-10T17:28:44.253Z,1.60
2023-07-10T17:31:48.887Z,1.67
2023-07-10T17:34:53.590Z,1.90
2023-07-10T17:37:58.107Z,1.83
2023-07-10T17:41:03.008Z,2.05
2023-07-10T17:44:18.474Z,2.05
2023-07-10T17:47:23.027Z,2.00
2023-07-10T17:50:27.626Z,1.70
2023-07-10T17:53:32.201Z,1.63
2023-07-10T17:56:36.707Z,2.05
2023-07-10T17:59:42.636Z,1.90
2023-07-10T18:02:48.333Z,2.03
2023-07-10T18:05:53.226Z,1.67
2023-07-10T18:08:57.827Z,2.00
2023-07-10T18:12:02.523Z,1.90
2023-07-10T18:15:16.503Z,1.70
2023-07-10T18:18:20.979Z,1.88
2023-07-10T18:21:28.232Z,1.95
2023-07-10T18:24:32.781Z,1.75
2023-07-10T18:27:37.340Z,1.95
2023-07-10T18:30:43.845Z,1.83
2023-07-10T18:33:48.633Z,1.73
2023-07-10T18:36:53.482Z,1.90
2023-07-10T18:39:58.137Z,2.30
2023-07-10T18:43:02.678Z,2.08
2023-07-10T18:46:09.719Z,1.73
2023-07-10T18:49:19.796Z,2.25
2023-07-10T18:52:29.336Z,2.05
2023-07-10T18:55:33.826Z,1.92
2023-07-10T18:58:39.126Z,2.10
2023-07-10T19:01:45.312Z,2.22
2023-07-10T19:04:52.428Z,2.10
2023-07-10T19:07:57.156Z,2.05
2023-07-10T19:11:01.885Z,1.98
2023-07-10T19:14:13.984Z,1.90
2023-07-10T19:17:21.739Z,2.50
2023-07-10T19:20:26.246Z,2.05
2023-07-10T19:23:32.559Z,2.50
2023-07-10T19:26:37.512Z,2.15
2023-07-10T19:29:42.044Z,2.30
2023-07-10T19:32:48.037Z,2.25
2023-07-10T19:35:53.255Z,2.30
2023-07-10T19:38:59.769Z,2.08
2023-07-10T19:42:06.136Z,2.28
2023-07-10T19:45:11.877Z,2.38
2023-07-10T19:48:19.081Z,2.67
2023-07-10T19:51:23.661Z,2.25
2023-07-10T19:54:28.334Z,2.53
2023-07-10T19:57:35.182Z,2.00
2023-07-10T20:00:39.803Z,1.98
2023-07-10T20:03:46.037Z,1.98
2023-07-10T20:06:51.280Z,2.38
2023-07-10T20:09:55.760Z,2.25
2023-07-10T20:13:00.242Z,2.20
2023-07-10T20:16:06.592Z,2.40
2023-07-10T20:19:17.921Z,2.13
2023-07-10T20:22:22.389Z,2.20
2023-07-10T20:25:26.982Z,2.50
2023-07-10T20:28:35.288Z,2.60
2023-07-10T20:31:39.840Z,2.50
2023-07-10T20:34:50.047Z,2.70
2023-07-10T20:37:55.999Z,2.47
2023-07-10T20:41:00.877Z,2.50
2023-07-10T20:44:12.156Z,2.45
2023-07-10T20:47:18.185Z,2.65
2023-07-10T20:50:24.866Z,2.45
2023-07-10T20:53:32.383Z,2.70
2023-07-10T20:56:37.243Z,2.58
2023-07-10T20:59:41.742Z,2.45
2023-07-10T21:02:46.540Z,2.33
2023-07-10T21:05:56.061Z,2.67
2023-07-10T21:09:03.138Z,2.40
2023-07-10T21:12:10.198Z,2.58
2023-07-10T21:15:15.895Z,3.22
2023-07-10T21:18:23.844Z,2.47
2023-07-10T21:21:29.868Z,2.50
2023-07-10T21:24:34.924Z,2.45
2023-07-10T21:27:39.738Z,2.72
2023-07-10T21:30:46.036Z,2.70
2023-07-10T21:33:52.455Z,2.60
2023-07-10T21:36:58.399Z,2.65
2023-07-10T21:40:02.917Z,3.22
2023-07-10T21:43:07.789Z,2.80
2023-07-10T21:46:16.194Z,3.05
2023-07-10T21:49:21.493Z,2.50
2023-07-10T21:52:27.381Z,2.85
2023-07-10T21:55:32.040Z,2.63
2023-07-10T21:58:38.698Z,3.08
2023-07-10T22:01:43.258Z,2.95
2023-07-10T22:04:47.771Z,2.85
2023-07-10T22:07:53.835Z,2.90
2023-07-10T22:10:59.858Z,2.80
2023-07-10T22:14:04.368Z,2.95
2023-07-10T22:17:19.216Z,2.80
2023-07-10T22:20:23.825Z,3.15
2023-07-10T22:23:31.690Z,3.20
2023-07-10T22:26:36.557Z,2.90
2023-07-10T22:29:41.863Z,2.80
2023-07-10T22:32:46.561Z,2.80
2023-07-10T22:35:51.300Z,3.35
2023-07-10T22:38:57.138Z,3.42
2023-07-10T22:42:02.319Z,2.97
2023-07-10T22:45:07.935Z,3.22
2023-07-10T22:48:13.735Z,3.35
2023-07-10T22:51:20.856Z,3.05
2023-07-10T22:54:26.707Z,2.80
2023-07-10T22:57:31.430Z,3.10
2023-07-10T23:00:36.505Z,2.97
2023-07-10T23:03:42.375Z,3.08
2023-07-10T23:06:48.149Z,2.90
2023-07-10T23:09:54.037Z,3.13
2023-07-10T23:12:58.619Z,3.00
2023-07-10T23:16:03.513Z,3.30
2023-07-10T23:19:08.091Z,3.15
2023-07-10T23:22:12.558Z,3.20
2023-07-10T23:25:18.650Z,3.13
2023-07-10T23:28:23.353Z,3.28
2023-07-10T23:31:29.534Z,3.30
2023-07-10T23:34:34.144Z,3.28
2023-07-10T23:37:38.695Z,3.10
2023-07-10T23:40:44.857Z,3.40
2023-07-10T23:43:49.331Z,3.15
2023-07-10T23:46:53.856Z,3.53
2023-07-10T23:49:58.416Z,3.08
2023-07-10T23:53:03.397Z,3.22
2023-07-10T23:56:10.323Z,2.95
2023-07-10T23:59:15.168Z,3.05
